createdAt,value
2023-03-30T00:00:58.010Z,11.80
2023-03-30T00:02:03.508Z,11.95
2023-03-30T00:03:05.852Z,11.88
2023-03-30T00:04:11.516Z,11.10
2023-03-30T00:05:13.975Z,11.25
2023-03-30T00:06:22.001Z,12.63
2023-03-30T00:07:25.325Z,11.40
2023-03-30T00:08:28.932Z,10.68
2023-03-30T00:09:32.507Z,11.20
2023-03-30T00:10:38.633Z,10.93
2023-03-30T00:11:41.630Z,12.05
2023-03-30T00:12:45.149Z,11.40
2023-03-30T00:13:48.043Z,10.93
2023-03-30T00:14:50.118Z,11.05
2023-03-30T00:15:53.081Z,11.40
2023-03-30T00:16:55.249Z,10.30
2023-03-30T00:17:59.077Z,12.32
2023-03-30T00:19:01.042Z,11.68
2023-03-30T00:20:09.622Z,11.70
2023-03-30T00:21:12.158Z,13.35
2023-03-30T00:22:15.132Z,13.02
2023-03-30T00:23:17.198Z,11.93
2023-03-30T00:24:20.396Z,11.68
2023-03-30T00:25:23.305Z,12.70
2023-03-30T00:26:28.385Z,12.35
2023-03-30T00:27:30.339Z,12.60
2023-03-30T00:28:33.872Z,11.00
2023-03-30T00:29:36.126Z,11.30
2023-03-30T00:30:39.319Z,12.35
2023-03-30T00:31:41.740Z,13.30
2023-03-30T00:32:45.478Z,11.52
2023-03-30T00:33:47.990Z,12.10
2023-03-30T00:34:51.085Z,11.85
2023-03-30T00:35:53.414Z,12.27
2023-03-30T00:36:57.241Z,12.10
2023-03-30T00:38:01.693Z,12.48
2023-03-30T00:39:06.628Z,12.57
2023-03-30T00:40:14.386Z,12.45
2023-03-30T00:41:17.735Z,11.95
2023-03-30T00:42:21.828Z,12.23
2023-03-30T00:43:25.739Z,12.65
2023-03-30T00:45:14.441Z,11.15
2023-03-30T00:46:17.525Z,10.35
2023-03-30T00:47:20.235Z,11.50
2023-03-30T00:48:27.411Z,11.65
2023-03-30T00:49:29.660Z,11.85
2023-03-30T00:50:36.575Z,11.43
2023-03-30T00:51:40.541Z,11.77
2023-03-30T00:52:46.189Z,10.68
2023-03-30T00:53:50.287Z,11.27
2023-03-30T00:54:55.449Z,10.00
2023-03-30T00:55:58.577Z,11.40
2023-03-30T00:57:01.557Z,11.52
2023-03-30T00:58:06.582Z,11.15
2023-03-30T00:59:10.388Z,10.57
2023-03-30T01:00:13.125Z,10.10
2023-03-30T01:01:25.411Z,10.65
2023-03-30T01:02:30.778Z,11.20
2023-03-30T01:03:37.230Z,10.05
2023-03-30T01:04:39.520Z,11.52
2023-03-30T01:05:44.836Z,10.98
2023-03-30T01:06:49.104Z,11.20
2023-03-30T01:07:53.451Z,11.23
2023-03-30T01:08:56.015Z,9.85
2023-03-30T01:09:59.419Z,10.90
2023-03-30T01:11:03.805Z,10.02
2023-03-30T01:12:06.624Z,10.55
2023-03-30T01:13:11.387Z,10.73
2023-03-30T01:14:16.404Z,9.63
2023-03-30T01:15:20.514Z,8.30
2023-03-30T01:16:30.295Z,10.32
2023-03-30T01:17:39.211Z,9.23
2023-03-30T01:18:54.757Z,9.98
2023-03-30T01:20:23.583Z,8.45
2023-03-30T01:21:55.584Z,9.00
2023-03-30T01:23:39.542Z,8.30
2023-03-30T01:25:15.157Z,9.55
2023-03-30T01:26:38.011Z,9.73
2023-03-30T01:28:12.247Z,8.23
2023-03-30T01:29:29.247Z,8.50
2023-03-30T01:30:45.337Z,9.00
2023-03-30T01:32:20.960Z,9.07
2023-03-30T01:33:54.891Z,9.18
2023-03-30T01:35:26.574Z,8.68
2023-03-30T01:37:07.573Z,8.40
2023-03-30T01:38:37.063Z,8.35
2023-03-30T01:39:52.605Z,8.50
2023-03-30T01:41:03.573Z,9.13
2023-03-30T01:42:15.552Z,8.77
2023-03-30T01:43:20.701Z,8.85
2023-03-30T01:44:32.002Z,8.45
2023-03-30T01:45:43.683Z,8.20
2023-03-30T01:46:50.915Z,8.70
2023-03-30T01:47:57.105Z,9.15
2023-03-30T01:49:06.057Z,8.40
2023-03-30T01:50:11.815Z,9.85
2023-03-30T01:51:21.768Z,9.30
2023-03-30T01:52:29.236Z,8.48
2023-03-30T01:53:38.321Z,7.85
2023-03-30T01:54:45.898Z,8.90
2023-03-30T01:55:53.994Z,9.85
2023-03-30T01:57:02.404Z,8.82
2023-03-30T01:58:11.735Z,8.77
2023-03-30T01:59:18.297Z,8.55
2023-03-30T02:00:24.345Z,9.05
2023-03-30T02:01:28.619Z,9.20
2023-03-30T02:02:33.580Z,9.50
2023-03-30T02:03:40.138Z,9.18
2023-03-30T02:04:45.624Z,9.15
2023-03-30T02:05:51.224Z,7.75
2023-03-30T02:06:59.637Z,9.52
2023-03-30T02:08:06.786Z,9.35
2023-03-30T02:09:12.689Z,9.43
2023-03-30T02:10:18.063Z,8.98
2023-03-30T02:11:21.094Z,8.73
2023-03-30T02:12:25.367Z,9.90
2023-03-30T02:13:29.740Z,9.10
2023-03-30T02:14:34.659Z,10.02
2023-03-30T02:15:42.008Z,8.50
2023-03-30T02:16:47.211Z,9.65
2023-03-30T02:17:50.335Z,9.20
2023-03-30T02:18:54.608Z,9.18
2023-03-30T02:19:58.049Z,8.95
2023-03-30T02:21:02.397Z,10.00
2023-03-30T02:22:06.372Z,10.00
2023-03-30T02:23:08.860Z,9.93
2023-03-30T02:24:19.264Z,9.45
2023-03-30T02:25:24.538Z,8.90
2023-03-30T02:26:27.515Z,9.63
2023-03-30T02:27:32.075Z,9.20
2023-03-30T02:28:34.375Z,10.02
2023-03-30T02:29:40.202Z,8.95
2023-03-30T02:30:45.260Z,9.60
2023-03-30T02:31:50.531Z,10.20
2023-03-30T02:32:54.992Z,8.43
2023-03-30T02:34:10.540Z,10.82
2023-03-30T02:35:40.095Z,9.90
2023-03-30T02:37:04.032Z,10.27
2023-03-30T02:38:42.820Z,10.05
2023-03-30T02:39:58.440Z,9.15
2023-03-30T02:41:14.030Z,10.23
2023-03-30T02:42:34.238Z,10.02
2023-03-30T02:43:48.494Z,10.18
2023-03-30T02:45:04.390Z,9.35
2023-03-30T02:46:27.692Z,9.70
2023-03-30T02:47:37.006Z,9.55
2023-03-30T02:48:45.936Z,9.88
2023-03-30T02:49:57.640Z,8.73
2023-03-30T02:51:09.836Z,10.10
2023-03-30T02:52:22.561Z,10.30
2023-03-30T02:53:33.794Z,9.75
2023-03-30T02:54:46.068Z,10.38
2023-03-30T02:56:03.821Z,9.75
2023-03-30T02:57:13.805Z,9.30
2023-03-30T02:58:25.218Z,9.45
2023-03-30T02:59:30.795Z,9.80
2023-03-30T03:00:40.850Z,9.07
2023-03-30T03:01:47.836Z,9.65
2023-03-30T03:02:57.405Z,9.95
2023-03-30T03:04:03.234Z,10.88
2023-03-30T03:05:07.923Z,10.50
2023-03-30T03:06:11.598Z,10.40
2023-03-30T03:07:15.624Z,9.40
2023-03-30T03:08:19.018Z,10.30
2023-03-30T03:09:25.005Z,10.35
2023-03-30T03:10:26.980Z,10.02
2023-03-30T03:11:29.886Z,10.10
2023-03-30T03:12:33.323Z,10.70
2023-03-30T03:13:36.886Z,9.43
2023-03-30T03:14:39.836Z,10.30
2023-03-30T03:15:45.230Z,9.15
2023-03-30T03:16:47.273Z,9.95
2023-03-30T03:17:51.542Z,9.30
2023-03-30T03:18:54.232Z,9.60
2023-03-30T03:19:57.187Z,10.50
2023-03-30T03:20:59.420Z,9.85
2023-03-30T03:22:02.442Z,9.30
2023-03-30T03:23:04.504Z,9.88
2023-03-30T03:24:08.160Z,8.98
2023-03-30T03:25:10.472Z,9.10
2023-03-30T03:26:14.038Z,9.70
2023-03-30T03:27:16.290Z,9.63
2023-03-30T03:28:21.311Z,10.30
2023-03-30T03:29:24.300Z,9.55
2023-03-30T03:30:26.632Z,9.57
2023-03-30T03:31:29.700Z,10.30
2023-03-30T03:32:31.724Z,11.07
2023-03-30T03:33:34.748Z,9.40
2023-03-30T03:34:36.665Z,11.05
2023-03-30T03:35:40.245Z,9.02
2023-03-30T03:36:43.813Z,10.43
2023-03-30T03:37:45.735Z,10.00
2023-03-30T03:38:48.674Z,9.48
2023-03-30T03:39:50.637Z,10.50
2023-03-30T03:40:54.998Z,10.07
2023-03-30T03:41:58.002Z,9.70
2023-03-30T03:42:59.982Z,10.00
2023-03-30T03:44:04.292Z,9.23
2023-03-30T03:45:07.733Z,9.40
2023-03-30T03:46:10.809Z,8.48
2023-03-30T03:47:16.012Z,9.85
2023-03-30T03:48:21.531Z,10.25
2023-03-30T03:49:23.487Z,9.13
2023-03-30T03:50:26.443Z,9.38
2023-03-30T03:51:29.350Z,9.75
2023-03-30T03:52:32.443Z,9.52
2023-03-30T03:53:34.561Z,9.75
2023-03-30T03:54:37.490Z,9.95
2023-03-30T03:55:39.444Z,9.15
2023-03-30T03:56:42.474Z,10.23
2023-03-30T03:57:45.050Z,9.90
2023-03-30T03:58:47.956Z,9.48
2023-03-30T03:59:51.671Z,9.57
2023-03-30T04:00:59.661Z,9.10
2023-03-30T04:02:01.812Z,10.05
2023-03-30T04:03:05.453Z,9.75
2023-03-30T04:04:07.496Z,8.88
2023-03-30T04:05:11.067Z,9.70
2023-03-30T04:06:13.027Z,10.35
2023-03-30T04:07:15.954Z,8.85
2023-03-30T04:08:18.065Z,9.40
2023-03-30T04:09:22.020Z,8.88
2023-03-30T04:10:24.337Z,8.30
2023-03-30T04:11:27.673Z,8.43
2023-03-30T04:12:30.098Z,10.25
2023-03-30T04:13:33.047Z,9.23
2023-03-30T04:14:35.050Z,10.55
2023-03-30T04:15:39.330Z,9.25
2023-03-30T04:16:41.286Z,9.52
2023-03-30T04:17:47.271Z,10.07
2023-03-30T04:18:49.748Z,9.70
2023-03-30T04:19:53.779Z,9.52
2023-03-30T04:20:57.026Z,9.60
2023-03-30T04:21:59.077Z,9.48
2023-03-30T04:23:02.738Z,10.18
2023-03-30T04:24:04.896Z,9.05
2023-03-30T04:25:09.779Z,8.80
2023-03-30T04:26:13.876Z,9.70
2023-03-30T04:27:17.764Z,9.05
2023-03-30T04:28:21.718Z,9.60
2023-03-30T04:29:25.075Z,10.13
2023-03-30T04:30:30.518Z,8.32
2023-03-30T04:31:35.555Z,9.68
2023-03-30T04:32:38.941Z,9.05
2023-03-30T04:33:51.917Z,8.85
2023-03-30T04:34:54.792Z,9.05
2023-03-30T04:35:58.080Z,9.30
2023-03-30T04:37:00.145Z,9.40
2023-03-30T04:38:05.328Z,9.25
2023-03-30T04:39:07.920Z,8.75
2023-03-30T04:40:13.152Z,9.20
2023-03-30T04:41:15.085Z,11.00
2023-03-30T04:42:20.063Z,8.95
2023-03-30T04:43:23.806Z,9.20
2023-03-30T04:44:26.922Z,9.63
2023-03-30T04:45:29.584Z,9.50
2023-03-30T04:46:34.120Z,10.02
2023-03-30T04:47:36.417Z,10.05
2023-03-30T04:48:39.445Z,8.98
2023-03-30T04:49:42.375Z,9.70
2023-03-30T04:50:46.135Z,10.60
2023-03-30T04:51:49.088Z,11.45
2023-03-30T04:52:51.366Z,11.13
2023-03-30T04:53:54.364Z,9.45
2023-03-30T04:54:56.338Z,10.32
2023-03-30T04:55:59.365Z,9.80
2023-03-30T04:57:01.382Z,10.55
2023-03-30T04:58:04.680Z,10.50
2023-03-30T04:59:07.004Z,10.02
2023-03-30T05:00:10.780Z,11.20
2023-03-30T05:01:12.790Z,9.20
2023-03-30T05:02:17.200Z,20.60
2023-03-30T05:03:22.368Z,25.48
2023-03-30T05:04:26.968Z,15.45
2023-03-30T05:05:28.915Z,18.50
2023-03-30T05:06:31.871Z,38.60
2023-03-30T05:07:33.808Z,26.33
2023-03-30T05:08:37.234Z,19.65
2023-03-30T05:09:40.443Z,29.15
2023-03-30T05:10:43.378Z,28.67
2023-03-30T05:11:45.454Z,18.05
2023-03-30T05:12:48.546Z,11.10
2023-03-30T05:13:51.374Z,10.93
2023-03-30T05:14:54.309Z,9.85
2023-03-30T05:15:57.497Z,9.82
2023-03-30T05:17:00.879Z,9.45
2023-03-30T05:18:04.328Z,9.98
2023-03-30T05:19:07.266Z,10.38
2023-03-30T05:20:10.162Z,11.55
2023-03-30T05:21:13.159Z,9.82
2023-03-30T05:22:15.593Z,11.43
2023-03-30T05:23:18.537Z,11.70
2023-03-30T05:24:20.820Z,12.70
2023-03-30T05:25:23.781Z,11.85
2023-03-30T05:26:26.389Z,11.85
2023-03-30T05:27:29.430Z,12.40
2023-03-30T05:28:32.546Z,13.57
2023-03-30T05:29:35.585Z,11.43
2023-03-30T05:30:37.516Z,13.18
2023-03-30T05:31:40.640Z,11.25
2023-03-30T05:32:42.910Z,10.45
2023-03-30T05:33:47.410Z,11.43
2023-03-30T05:34:49.439Z,11.10
2023-03-30T05:35:52.591Z,9.45
2023-03-30T05:36:54.748Z,8.88
2023-03-30T05:37:58.389Z,9.73
2023-03-30T05:39:01.384Z,10.95
2023-03-30T05:40:08.129Z,10.40
2023-03-30T05:41:11.163Z,9.90
2023-03-30T05:42:13.160Z,8.82
2023-03-30T05:43:16.055Z,9.93
2023-03-30T05:44:19.981Z,10.18
2023-03-30T05:45:24.376Z,10.00
2023-03-30T05:46:26.360Z,9.90
2023-03-30T05:47:30.275Z,10.98
2023-03-30T05:48:32.225Z,11.30
2023-03-30T05:49:36.558Z,10.98
2023-03-30T05:50:38.869Z,11.02
2023-03-30T05:51:41.878Z,10.95
2023-03-30T05:52:43.827Z,11.00
2023-03-30T05:53:47.317Z,10.82
2023-03-30T05:54:49.258Z,13.10
2023-03-30T05:55:52.402Z,13.20
2023-03-30T05:56:54.378Z,12.90
2023-03-30T05:57:57.841Z,14.30
2023-03-30T05:58:59.829Z,12.88
2023-03-30T06:00:06.669Z,12.68
2023-03-30T06:01:09.530Z,11.45
2023-03-30T06:02:12.967Z,11.95
2023-03-30T06:03:16.416Z,12.80
2023-03-30T06:04:20.525Z,10.50
2023-03-30T06:05:25.138Z,11.20
2023-03-30T06:06:28.084Z,10.65
2023-03-30T06:07:31.425Z,12.10
2023-03-30T06:08:33.532Z,10.40
2023-03-30T06:09:37.251Z,10.73
2023-03-30T06:10:39.532Z,11.45
2023-03-30T06:11:42.491Z,10.80
2023-03-30T06:12:44.428Z,11.15
2023-03-30T06:13:47.532Z,13.82
2023-03-30T06:14:49.504Z,22.33
2023-03-30T06:15:52.477Z,23.95
2023-03-30T06:16:54.681Z,20.30
2023-03-30T06:17:59.421Z,17.20
2023-03-30T06:19:01.400Z,16.20
2023-03-30T06:20:09.855Z,17.08
2023-03-30T06:21:14.290Z,11.93
2023-03-30T06:22:16.255Z,11.25
2023-03-30T06:23:19.410Z,9.15
2023-03-30T06:24:22.724Z,10.55
2023-03-30T06:25:24.689Z,9.60
2023-03-30T06:26:27.984Z,10.15
2023-03-30T06:27:31.650Z,10.75
2023-03-30T06:28:35.110Z,11.40
2023-03-30T06:29:38.265Z,10.65
2023-03-30T06:30:42.426Z,10.50
2023-03-30T06:31:44.450Z,10.95
2023-03-30T06:32:47.403Z,10.70
2023-03-30T06:33:50.243Z,10.82
2023-03-30T06:34:53.377Z,10.38
2023-03-30T06:35:55.389Z,10.77
2023-03-30T06:36:59.784Z,9.90
2023-03-30T06:38:01.917Z,9.20
2023-03-30T06:39:06.606Z,10.25
2023-03-30T06:40:13.148Z,12.23
2023-03-30T06:41:16.366Z,10.35
2023-03-30T06:42:18.631Z,10.68
2023-03-30T06:43:23.724Z,10.38
2023-03-30T06:44:25.620Z,11.20
2023-03-30T06:45:28.556Z,11.00
2023-03-30T06:46:31.507Z,9.75
2023-03-30T06:47:33.771Z,9.07
2023-03-30T06:48:36.834Z,9.32
2023-03-30T06:49:38.817Z,10.45
2023-03-30T06:50:41.766Z,9.55
2023-03-30T06:51:43.706Z,10.70
2023-03-30T06:52:48.539Z,9.48
2023-03-30T06:53:51.454Z,10.63
2023-03-30T06:54:53.415Z,11.23
2023-03-30T06:55:58.622Z,11.25
2023-03-30T06:57:01.225Z,10.65
2023-03-30T06:58:04.531Z,10.32
2023-03-30T06:59:07.110Z,9.88
2023-03-30T07:00:13.819Z,10.27
2023-03-30T07:01:16.754Z,10.27
2023-03-30T07:02:19.763Z,10.85
2023-03-30T07:03:22.734Z,11.07
2023-03-30T07:04:24.808Z,11.55
2023-03-30T07:05:28.785Z,10.30
2023-03-30T07:06:30.796Z,10.45
2023-03-30T07:07:33.796Z,9.75
2023-03-30T07:08:38.665Z,11.30
2023-03-30T07:09:40.650Z,10.88
2023-03-30T07:10:43.660Z,10.57
2023-03-30T07:11:45.644Z,9.45
2023-03-30T07:12:48.605Z,10.90
2023-03-30T07:13:50.645Z,11.63
2023-03-30T07:14:54.405Z,12.63
2023-03-30T07:15:57.788Z,11.80
2023-03-30T07:16:59.752Z,9.27
2023-03-30T07:18:03.179Z,11.13
2023-03-30T07:19:06.031Z,10.65
2023-03-30T07:20:11.218Z,10.88
2023-03-30T07:21:13.146Z,9.75
2023-03-30T07:22:16.037Z,10.55
2023-03-30T07:23:18.239Z,11.00
2023-03-30T07:24:22.755Z,9.57
2023-03-30T07:25:24.711Z,10.90
2023-03-30T07:26:27.768Z,10.23
2023-03-30T07:27:29.694Z,9.38
2023-03-30T07:28:33.048Z,9.73
2023-03-30T07:29:37.032Z,10.38
2023-03-30T07:30:40.099Z,10.88
2023-03-30T07:31:42.284Z,10.73
2023-03-30T07:32:45.459Z,10.70
2023-03-30T07:33:47.538Z,10.70
2023-03-30T07:34:50.480Z,11.40
2023-03-30T07:35:53.247Z,11.95
2023-03-30T07:36:56.283Z,10.80
2023-03-30T07:38:03.395Z,10.90
2023-03-30T07:39:08.177Z,10.98
2023-03-30T07:40:13.113Z,11.15
2023-03-30T07:41:16.311Z,11.05
2023-03-30T07:42:19.246Z,9.23
2023-03-30T07:43:22.356Z,8.43
2023-03-30T07:44:29.077Z,6.95
2023-03-30T07:45:32.062Z,7.82
2023-03-30T07:46:35.745Z,9.07
2023-03-30T07:47:38.736Z,8.80
2023-03-30T07:48:41.164Z,8.60
2023-03-30T07:49:44.062Z,9.45
2023-03-30T07:50:47.629Z,8.32
2023-03-30T07:51:49.661Z,8.65
2023-03-30T07:52:52.846Z,9.15
2023-03-30T07:53:54.764Z,7.60
2023-03-30T07:54:57.841Z,8.32
2023-03-30T07:56:01.248Z,8.95
2023-03-30T07:57:04.252Z,9.50
2023-03-30T07:58:07.840Z,9.48
2023-03-30T07:59:10.278Z,8.52
2023-03-30T08:00:14.892Z,9.80
2023-03-30T08:01:18.385Z,8.90
2023-03-30T08:02:21.286Z,8.85
2023-03-30T08:03:25.905Z,10.18
2023-03-30T08:04:28.114Z,8.65
2023-03-30T08:05:31.431Z,9.45
2023-03-30T08:06:34.348Z,9.00
2023-03-30T08:07:36.665Z,8.98
2023-03-30T08:08:41.140Z,9.10
2023-03-30T08:09:45.792Z,9.35
2023-03-30T08:10:47.808Z,8.90
2023-03-30T08:11:52.111Z,8.82
2023-03-30T08:12:54.052Z,8.82
2023-03-30T08:13:58.404Z,9.43
2023-03-30T08:15:01.208Z,9.48
2023-03-30T08:16:04.325Z,8.77
2023-03-30T08:17:07.578Z,9.18
2023-03-30T08:18:12.962Z,9.05
2023-03-30T08:19:16.678Z,8.50
2023-03-30T08:20:18.768Z,9.02
2023-03-30T08:21:21.787Z,8.38
2023-03-30T08:22:24.285Z,9.88
2023-03-30T08:23:27.220Z,10.35
2023-03-30T08:24:29.264Z,9.30
2023-03-30T08:25:32.294Z,10.23
2023-03-30T08:26:36.301Z,8.43
2023-03-30T08:27:39.579Z,9.38
2023-03-30T08:28:42.547Z,9.23
2023-03-30T08:29:44.453Z,9.30
2023-03-30T08:30:47.567Z,8.80
2023-03-30T08:31:51.995Z,9.85
2023-03-30T08:32:54.038Z,9.20
2023-03-30T08:33:57.056Z,9.57
2023-03-30T08:35:00.160Z,9.45
2023-03-30T08:36:03.238Z,9.52
2023-03-30T08:37:06.353Z,9.00
2023-03-30T08:38:09.877Z,8.95
2023-03-30T08:39:12.923Z,9.20
2023-03-30T08:40:17.926Z,8.98
2023-03-30T08:41:43.852Z,9.02
2023-03-30T08:43:08.547Z,9.02
2023-03-30T08:44:21.099Z,8.80
2023-03-30T08:45:24.118Z,9.35
2023-03-30T08:46:27.406Z,10.50
2023-03-30T08:47:33.676Z,9.10
2023-03-30T08:48:40.057Z,10.02
2023-03-30T08:49:46.008Z,9.30
2023-03-30T08:50:55.850Z,9.48
2023-03-30T08:53:04.512Z,9.43
2023-03-30T08:54:13.650Z,9.90
2023-03-30T08:55:24.527Z,9.10
2023-03-30T08:56:31.841Z,9.88
2023-03-30T08:57:46.919Z,9.40
2023-03-30T08:59:00.210Z,9.32
2023-03-30T09:00:17.397Z,9.70
2023-03-30T09:01:24.903Z,10.25
2023-03-30T09:02:31.955Z,10.40
2023-03-30T09:03:42.217Z,9.05
2023-03-30T09:04:58.112Z,12.13
2023-03-30T09:06:09.996Z,11.80
2023-03-30T09:07:18.712Z,12.70
2023-03-30T09:08:23.762Z,12.40
2023-03-30T09:09:30.866Z,11.60
2023-03-30T09:10:42.288Z,12.10
2023-03-30T09:11:47.095Z,12.00
2023-03-30T09:12:52.794Z,10.35
2023-03-30T09:13:59.337Z,9.45
2023-03-30T09:15:05.679Z,10.27
2023-03-30T09:16:17.533Z,10.70
2023-03-30T09:17:24.538Z,11.52
2023-03-30T09:18:31.517Z,13.73
2023-03-30T09:19:42.132Z,13.07
2023-03-30T09:20:47.476Z,9.48
2023-03-30T09:21:51.479Z,10.80
2023-03-30T09:22:55.871Z,14.35
2023-03-30T09:24:01.402Z,15.43
2023-03-30T09:25:06.183Z,11.73
2023-03-30T09:26:19.627Z,11.10
2023-03-30T09:27:39.048Z,9.55
2023-03-30T09:28:48.268Z,10.85
2023-03-30T09:29:58.140Z,8.70
2023-03-30T09:31:04.233Z,10.82
2023-03-30T09:32:14.862Z,10.82
2023-03-30T09:33:28.892Z,10.55
2023-03-30T09:34:40.700Z,10.43
2023-03-30T09:35:50.524Z,9.10
2023-03-30T09:36:58.404Z,8.77
2023-03-30T09:38:01.670Z,11.00
2023-03-30T09:39:10.989Z,10.23
2023-03-30T09:40:26.622Z,11.43
2023-03-30T09:41:43.478Z,9.65
2023-03-30T09:42:53.152Z,10.45
2023-03-30T09:43:58.057Z,9.95
2023-03-30T09:45:12.557Z,8.98
2023-03-30T09:46:16.492Z,8.40
2023-03-30T09:47:25.323Z,9.13
2023-03-30T09:48:28.331Z,8.10
2023-03-30T09:49:39.782Z,9.57
2023-03-30T09:50:44.913Z,8.60
2023-03-30T09:51:57.372Z,10.30
2023-03-30T09:53:01.390Z,9.65
2023-03-30T09:54:06.318Z,9.10
2023-03-30T09:55:27.804Z,9.02
2023-03-30T09:56:40.917Z,9.30
2023-03-30T09:57:45.312Z,8.07
2023-03-30T09:58:48.576Z,9.10
2023-03-30T09:59:52.715Z,9.40
2023-03-30T10:01:06.755Z,8.65
2023-03-30T10:02:19.178Z,10.35
2023-03-30T10:03:24.406Z,8.93
2023-03-30T10:04:27.826Z,7.55
2023-03-30T10:05:32.504Z,9.50
2023-03-30T10:06:37.992Z,8.85
2023-03-30T10:07:43.177Z,8.93
2023-03-30T10:08:52.772Z,9.88
2023-03-30T10:09:55.006Z,9.02
2023-03-30T10:11:00.718Z,9.90
2023-03-30T10:12:02.915Z,11.32
2023-03-30T10:13:09.292Z,11.05
2023-03-30T10:14:32.573Z,11.63
2023-03-30T10:15:39.505Z,11.50
2023-03-30T10:16:44.687Z,10.07
2023-03-30T10:17:51.152Z,10.70
2023-03-30T10:18:57.595Z,10.70
2023-03-30T10:20:22.291Z,10.50
2023-03-30T10:21:30.104Z,11.23
2023-03-30T10:22:32.302Z,10.10
2023-03-30T10:23:40.067Z,10.32
2023-03-30T10:24:52.011Z,11.52
2023-03-30T10:26:03.650Z,9.82
2023-03-30T10:27:13.154Z,11.00
2023-03-30T10:28:21.747Z,9.90
2023-03-30T10:29:27.766Z,10.60
2023-03-30T10:30:32.131Z,10.68
2023-03-30T10:31:37.417Z,10.98
2023-03-30T10:32:45.593Z,10.98
2023-03-30T10:33:49.540Z,9.90
2023-03-30T10:34:57.378Z,9.73
2023-03-30T10:36:01.143Z,10.35
2023-03-30T10:37:10.202Z,10.05
2023-03-30T10:38:15.045Z,12.10
2023-03-30T10:39:23.532Z,12.57
2023-03-30T10:40:33.673Z,15.57
2023-03-30T10:41:38.114Z,13.98
2023-03-30T10:42:42.016Z,12.57
2023-03-30T10:43:46.032Z,12.25
2023-03-30T10:44:51.090Z,12.95
2023-03-30T10:46:01.534Z,17.92
2023-03-30T10:47:28.542Z,22.55
2023-03-30T10:48:41.546Z,19.60
2023-03-30T10:49:54.050Z,16.98
2023-03-30T10:51:04.864Z,13.45
2023-03-30T10:52:13.878Z,15.00
2023-03-30T10:53:34.884Z,13.90
2023-03-30T10:54:42.520Z,14.57
2023-03-30T10:55:56.653Z,15.80
2023-03-30T10:57:05.958Z,12.57
2023-03-30T10:58:19.062Z,11.63
2023-03-30T11:00:10.116Z,11.30
2023-03-30T11:01:21.377Z,10.90
2023-03-30T11:02:44.455Z,10.88
2023-03-30T11:03:55.406Z,11.00
2023-03-30T11:05:05.960Z,11.52
2023-03-30T11:06:14.982Z,10.40
2023-03-30T11:07:26.045Z,11.00
2023-03-30T11:08:32.966Z,11.25
2023-03-30T11:09:39.833Z,11.18
2023-03-30T11:10:45.546Z,11.23
2023-03-30T11:11:52.402Z,10.07
2023-03-30T11:12:58.465Z,10.90
2023-03-30T11:14:03.495Z,13.20
2023-03-30T11:15:09.734Z,12.35
2023-03-30T11:16:17.599Z,12.30
2023-03-30T11:17:23.687Z,13.60
2023-03-30T11:18:30.583Z,41.35
2023-03-30T11:19:39.020Z,37.58
2023-03-30T11:20:48.265Z,20.35
2023-03-30T11:22:00.480Z,14.90
2023-03-30T11:23:12.452Z,12.27
2023-03-30T11:24:19.162Z,11.32
2023-03-30T11:25:25.728Z,12.48
2023-03-30T11:26:35.326Z,11.63
2023-03-30T11:27:49.183Z,10.73
2023-03-30T11:29:00.335Z,10.95
2023-03-30T11:30:14.423Z,11.32
2023-03-30T11:31:29.380Z,9.80
2023-03-30T11:32:38.944Z,10.35
2023-03-30T11:33:46.891Z,10.80
2023-03-30T11:35:02.622Z,11.02
2023-03-30T11:36:12.092Z,11.07
2023-03-30T11:37:21.899Z,11.10
2023-03-30T11:38:30.772Z,11.82
2023-03-30T11:39:35.708Z,11.13
2023-03-30T11:40:43.850Z,12.32
2023-03-30T11:41:51.070Z,10.73
2023-03-30T11:42:54.028Z,10.10
2023-03-30T11:43:57.001Z,9.80
2023-03-30T11:45:01.688Z,9.98
2023-03-30T11:46:10.118Z,9.75
2023-03-30T11:47:34.389Z,9.57
2023-03-30T11:49:11.842Z,10.60
2023-03-30T11:50:33.992Z,9.60
2023-03-30T11:51:52.672Z,9.23
2023-03-30T11:53:08.666Z,12.30
2023-03-30T11:54:38.535Z,11.40
2023-03-30T11:55:56.767Z,9.52
2023-03-30T11:57:08.138Z,10.40
2023-03-30T11:58:22.206Z,10.73
2023-03-30T11:59:35.580Z,9.32
2023-03-30T12:00:53.446Z,10.27
2023-03-30T12:02:08.104Z,9.75
2023-03-30T12:03:23.295Z,9.20
2023-03-30T12:04:29.487Z,9.77
2023-03-30T12:05:37.849Z,10.55
2023-03-30T12:06:42.937Z,10.00
2023-03-30T12:07:52.714Z,9.70
2023-03-30T12:09:09.655Z,10.13
2023-03-30T12:10:17.723Z,10.27
2023-03-30T12:11:32.338Z,9.52
2023-03-30T12:12:39.173Z,9.35
2023-03-30T12:13:51.259Z,9.48
2023-03-30T12:15:05.616Z,9.18
2023-03-30T12:16:13.269Z,9.07
2023-03-30T12:17:27.375Z,9.40
2023-03-30T12:18:38.168Z,9.70
2023-03-30T12:19:55.524Z,8.90
2023-03-30T12:21:27.075Z,9.55
2023-03-30T12:22:38.945Z,9.07
2023-03-30T12:23:48.293Z,10.07
2023-03-30T12:24:54.598Z,9.35
2023-03-30T12:26:17.655Z,10.40
2023-03-30T12:27:19.600Z,9.30
2023-03-30T12:28:32.450Z,9.18
2023-03-30T12:30:57.420Z,9.23
2023-03-30T12:32:22.510Z,9.95
2023-03-30T12:33:30.382Z,8.63
2023-03-30T12:34:34.491Z,9.43
2023-03-30T12:35:58.728Z,9.40
2023-03-30T12:37:10.167Z,9.50
2023-03-30T12:38:19.246Z,9.05
2023-03-30T12:39:31.315Z,8.35
2023-03-30T12:40:33.463Z,10.10
2023-03-30T12:41:42.568Z,9.75
2023-03-30T12:42:54.361Z,9.90
2023-03-30T12:44:35.128Z,8.75
2023-03-30T12:45:49.100Z,8.40
2023-03-30T12:47:07.222Z,9.07
2023-03-30T12:48:33.260Z,9.50
2023-03-30T12:49:46.998Z,11.60
2023-03-30T12:51:01.669Z,8.35
2023-03-30T12:52:14.823Z,8.90
2023-03-30T12:53:57.589Z,9.40
2023-03-30T12:55:22.333Z,8.75
2023-03-30T12:56:35.804Z,9.07
2023-03-30T12:57:50.170Z,8.65
2023-03-30T12:59:24.038Z,8.20
2023-03-30T13:00:59.758Z,6.53
2023-03-30T13:02:18.325Z,5.85
2023-03-30T13:03:40.673Z,6.53
2023-03-30T13:04:48.801Z,5.78
2023-03-30T13:05:53.217Z,6.45
2023-03-30T13:06:59.169Z,6.60
2023-03-30T13:08:06.814Z,7.63
2023-03-30T13:09:43.307Z,7.07
2023-03-30T13:10:46.653Z,6.07
2023-03-30T13:12:21.593Z,4.80
2023-03-30T13:13:45.675Z,5.97
2023-03-30T13:14:48.060Z,5.22
2023-03-30T13:15:54.411Z,4.60
2023-03-30T13:17:16.914Z,4.43
2023-03-30T13:18:35.481Z,5.10
2023-03-30T13:19:48.423Z,3.30
2023-03-30T13:21:20.294Z,3.63
2023-03-30T13:22:30.880Z,3.95
2023-03-30T13:23:37.718Z,3.58
2023-03-30T13:24:46.488Z,3.45
2023-03-30T13:26:01.107Z,4.25
2023-03-30T13:27:27.350Z,3.85
2023-03-30T13:28:48.858Z,3.65
2023-03-30T13:29:55.850Z,3.90
2023-03-30T13:31:07.821Z,3.33
2023-03-30T13:32:18.519Z,3.67
2023-03-30T13:33:24.575Z,2.90
2023-03-30T13:34:39.277Z,3.45
2023-03-30T13:35:59.923Z,2.80
2023-03-30T13:37:13.072Z,2.97
2023-03-30T13:38:54.488Z,3.08
2023-03-30T13:40:09.475Z,3.30
2023-03-30T13:41:21.694Z,3.78
2023-03-30T13:42:40.318Z,3.08
2023-03-30T13:44:05.513Z,3.50
2023-03-30T13:45:22.358Z,3.45
2023-03-30T13:46:31.870Z,3.17
2023-03-30T13:47:57.659Z,3.10
2023-03-30T13:49:15.676Z,2.28
2023-03-30T13:50:26.485Z,2.75
2023-03-30T13:51:30.284Z,2.70
2023-03-30T13:52:38.738Z,2.47
2023-03-30T13:53:47.582Z,2.53
2023-03-30T13:54:49.770Z,3.00
2023-03-30T13:55:54.263Z,2.90
2023-03-30T13:56:59.942Z,2.53
2023-03-30T13:58:05.583Z,2.70
2023-03-30T13:59:12.858Z,2.55
2023-03-30T14:00:39.555Z,2.95
2023-03-30T14:01:46.553Z,2.95
2023-03-30T14:02:49.364Z,2.60
2023-03-30T14:03:56.447Z,3.78
2023-03-30T14:05:14.194Z,3.30
2023-03-30T14:06:20.995Z,2.95
2023-03-30T14:07:24.095Z,2.60
2023-03-30T14:08:27.020Z,3.15
2023-03-30T14:09:30.060Z,2.70
2023-03-30T14:10:32.061Z,2.90
2023-03-30T14:11:39.602Z,2.75
2023-03-30T14:12:42.838Z,4.72
2023-03-30T14:13:48.210Z,2.58
2023-03-30T14:14:51.198Z,2.60
2023-03-30T14:15:55.440Z,2.72
2023-03-30T14:17:00.724Z,2.40
2023-03-30T14:18:05.273Z,2.83
2023-03-30T14:19:13.554Z,2.90
2023-03-30T14:20:29.046Z,2.05
2023-03-30T14:21:34.581Z,2.20
2023-03-30T14:22:43.070Z,3.17
2023-03-30T14:23:49.699Z,2.45
2023-03-30T14:24:59.463Z,2.50
2023-03-30T14:26:04.439Z,2.65
2023-03-30T14:27:14.528Z,2.63
2023-03-30T14:28:19.392Z,3.30
2023-03-30T14:29:31.472Z,2.90
2023-03-30T14:30:34.826Z,2.85
2023-03-30T14:31:40.583Z,2.38
2023-03-30T14:32:42.733Z,2.38
2023-03-30T14:33:46.144Z,2.30
2023-03-30T14:34:50.152Z,2.40
2023-03-30T14:35:56.438Z,2.38
2023-03-30T14:37:00.915Z,2.53
2023-03-30T14:38:16.013Z,3.00
2023-03-30T14:39:23.127Z,2.80
2023-03-30T14:40:25.154Z,3.15
2023-03-30T14:41:29.427Z,2.78
2023-03-30T14:42:34.727Z,2.83
2023-03-30T14:43:40.612Z,2.83
2023-03-30T14:44:44.197Z,2.22
2023-03-30T14:45:47.101Z,2.30
2023-03-30T14:46:52.501Z,2.83